sensor_id;sensor_type;location;lat;lon;timestamp;P1;durP1;ratioP1;P2;durP2;ratioP2
4726;SDS011;2377;51.734;8.950;2024-03-08T00:00:18;37.67;;;23.43;;
4726;SDS011;2377;51.734;8.950;2024-03-08T00:02:53;37.97;;;24.60;;
4726;SDS011;2377;51.734;8.950;2024-03-08T00:05:20;40.07;;;23.97;;
4726;SDS011;2377;51.734;8.950;2024-03-08T00:07:50;37.27;;;22.57;;
4726;SDS011;2377;51.734;8.950;2024-03-08T00:10:20;44.13;;;24.40;;
4726;SDS011;2377;51.734;8.950;2024-03-08T00:12:55;40.93;;;23.90;;
4726;SDS011;2377;51.734;8.950;2024-03-08T00:15:23;40.10;;;24.00;;
4726;SDS011;2377;51.734;8.950;2024-03-08T00:17:54;37.00;;;22.87;;
4726;SDS011;2377;51.734;8.950;2024-03-08T00:20:22;37.17;;;23.90;;
4726;SDS011;2377;51.734;8.950;2024-03-08T00:22:53;47.80;;;25.47;;
4726;SDS011;2377;51.734;8.950;2024-03-08T00:25:23;40.30;;;23.60;;
4726;SDS011;2377;51.734;8.950;2024-03-08T00:27:51;40.53;;;25.33;;
4726;SDS011;2377;51.734;8.950;2024-03-08T00:30:25;39.57;;;23.93;;
4726;SDS011;2377;51.734;8.950;2024-03-08T00:32:53;39.53;;;23.40;;
4726;SDS011;2377;51.734;8.950;2024-03-08T00:35:21;37.27;;;22.73;;
4726;SDS011;2377;51.734;8.950;2024-03-08T00:37:51;41.20;;;23.80;;
4726;SDS011;2377;51.734;8.950;2024-03-08T00:40:21;39.13;;;24.30;;
4726;SDS011;2377;51.734;8.950;2024-03-08T00:42:48;37.60;;;23.93;;
4726;SDS011;2377;51.734;8.950;2024-03-08T00:45:16;39.10;;;23.80;;
4726;SDS011;2377;51.734;8.950;2024-03-08T00:47:45;41.70;;;25.90;;
4726;SDS011;2377;51.734;8.950;2024-03-08T00:50:12;41.23;;;24.20;;
4726;SDS011;2377;51.734;8.950;2024-03-08T00:52:40;39.63;;;23.67;;
4726;SDS011;2377;51.734;8.950;2024-03-08T00:55:11;33.30;;;22.33;;
4726;SDS011;2377;51.734;8.950;2024-03-08T00:57:45;38.97;;;22.80;;
4726;SDS011;2377;51.734;8.950;2024-03-08T01:00:12;38.73;;;22.97;;
4726;SDS011;2377;51.734;8.950;2024-03-08T01:02:43;44.93;;;25.80;;
4726;SDS011;2377;51.734;8.950;2024-03-08T01:05:10;38.23;;;23.20;;
4726;SDS011;2377;51.734;8.950;2024-03-08T01:07:39;38.83;;;24.57;;
4726;SDS011;2377;51.734;8.950;2024-03-08T01:10:18;44.63;;;25.43;;
4726;SDS011;2377;51.734;8.950;2024-03-08T01:12:46;39.87;;;22.73;;
4726;SDS011;2377;51.734;8.950;2024-03-08T01:15:16;44.20;;;24.97;;
4726;SDS011;2377;51.734;8.950;2024-03-08T01:17:43;34.70;;;21.83;;
4726;SDS011;2377;51.734;8.950;2024-03-08T01:20:13;44.03;;;25.90;;
4726;SDS011;2377;51.734;8.950;2024-03-08T01:22:41;43.23;;;24.87;;
4726;SDS011;2377;51.734;8.950;2024-03-08T01:25:10;37.83;;;23.20;;
4726;SDS011;2377;51.734;8.950;2024-03-08T01:27:42;38.60;;;22.43;;
4726;SDS011;2377;51.734;8.950;2024-03-08T01:30:09;35.57;;;21.60;;
4726;SDS011;2377;51.734;8.950;2024-03-08T01:32:42;39.90;;;24.70;;
4726;SDS011;2377;51.734;8.950;2024-03-08T01:35:12;40.87;;;24.00;;
4726;SDS011;2377;51.734;8.950;2024-03-08T01:37:40;32.90;;;20.70;;
4726;SDS011;2377;51.734;8.950;2024-03-08T01:40:08;37.50;;;23.03;;
4726;SDS011;2377;51.734;8.950;2024-03-08T01:42:36;35.93;;;22.07;;
4726;SDS011;2377;51.734;8.950;2024-03-08T01:45:16;39.57;;;23.93;;
4726;SDS011;2377;51.734;8.950;2024-03-08T01:47:44;40.60;;;23.63;;
4726;SDS011;2377;51.734;8.950;2024-03-08T01:50:13;40.90;;;23.67;;
4726;SDS011;2377;51.734;8.950;2024-03-08T01:52:41;40.30;;;25.33;;
4726;SDS011;2377;51.734;8.950;2024-03-08T01:55:12;39.40;;;24.00;;
4726;SDS011;2377;51.734;8.950;2024-03-08T01:57:40;44.13;;;26.80;;
4726;SDS011;2377;51.734;8.950;2024-03-08T02:00:10;45.10;;;26.70;;
4726;SDS011;2377;51.734;8.950;2024-03-08T02:02:43;45.27;;;23.80;;
4726;SDS011;2377;51.734;8.950;2024-03-08T02:05:17;40.40;;;24.93;;
4726;SDS011;2377;51.734;8.950;2024-03-08T02:07:45;42.57;;;25.43;;
4726;SDS011;2377;51.734;8.950;2024-03-08T02:10:12;43.80;;;25.87;;
4726;SDS011;2377;51.734;8.950;2024-03-08T02:12:42;37.50;;;23.80;;
4726;SDS011;2377;51.734;8.950;2024-03-08T02:15:10;42.80;;;26.67;;
4726;SDS011;2377;51.734;8.950;2024-03-08T02:17:37;42.83;;;25.03;;
4726;SDS011;2377;51.734;8.950;2024-03-08T02:20:06;45.77;;;25.10;;
4726;SDS011;2377;51.734;8.950;2024-03-08T02:22:40;46.47;;;27.70;;
4726;SDS011;2377;51.734;8.950;2024-03-08T02:25:08;43.80;;;24.60;;
4726;SDS011;2377;51.734;8.950;2024-03-08T02:27:36;46.33;;;26.33;;
4726;SDS011;2377;51.734;8.950;2024-03-08T02:30:06;43.73;;;27.00;;
4726;SDS011;2377;51.734;8.950;2024-03-08T02:32:37;42.37;;;25.53;;
4726;SDS011;2377;51.734;8.950;2024-03-08T02:35:05;46.67;;;26.50;;
4726;SDS011;2377;51.734;8.950;2024-03-08T02:37:33;45.13;;;24.47;;
4726;SDS011;2377;51.734;8.950;2024-03-08T02:40:02;42.97;;;25.97;;
4726;SDS011;2377;51.734;8.950;2024-03-08T02:42:33;46.63;;;27.50;;
4726;SDS011;2377;51.734;8.950;2024-03-08T02:45:01;43.93;;;25.70;;
4726;SDS011;2377;51.734;8.950;2024-03-08T02:47:30;41.33;;;25.87;;
4726;SDS011;2377;51.734;8.950;2024-03-08T02:49:58;43.13;;;24.67;;
4726;SDS011;2377;51.734;8.950;2024-03-08T02:52:26;46.93;;;27.23;;
4726;SDS011;2377;51.734;8.950;2024-03-08T02:54:54;43.57;;;26.40;;
4726;SDS011;2377;51.734;8.950;2024-03-08T02:57:22;49.13;;;27.90;;
4726;SDS011;2377;51.734;8.950;2024-03-08T02:59:53;44.07;;;26.57;;
4726;SDS011;2377;51.734;8.950;2024-03-08T03:02:20;45.73;;;25.87;;
4726;SDS011;2377;51.734;8.950;2024-03-08T03:04:51;44.60;;;26.97;;
4726;SDS011;2377;51.734;8.950;2024-03-08T03:07:21;46.93;;;27.13;;
4726;SDS011;2377;51.734;8.950;2024-03-08T03:09:48;41.40;;;24.70;;
4726;SDS011;2377;51.734;8.950;2024-03-08T03:12:18;51.70;;;29.17;;
4726;SDS011;2377;51.734;8.950;2024-03-08T03:14:47;42.67;;;25.23;;
4726;SDS011;2377;51.734;8.950;2024-03-08T03:17:15;47.80;;;27.70;;
4726;SDS011;2377;51.734;8.950;2024-03-08T03:19:43;47.40;;;27.30;;
4726;SDS011;2377;51.734;8.950;2024-03-08T03:22:13;40.20;;;23.97;;
4726;SDS011;2377;51.734;8.950;2024-03-08T03:24:42;42.80;;;25.77;;
4726;SDS011;2377;51.734;8.950;2024-03-08T03:27:09;51.77;;;26.50;;
4726;SDS011;2377;51.734;8.950;2024-03-08T03:29:42;44.70;;;26.83;;
4726;SDS011;2377;51.734;8.950;2024-03-08T03:32:17;42.70;;;26.00;;
4726;SDS011;2377;51.734;8.950;2024-03-08T03:34:44;48.23;;;25.80;;
4726;SDS011;2377;51.734;8.950;2024-03-08T03:37:12;45.40;;;27.40;;
4726;SDS011;2377;51.734;8.950;2024-03-08T03:39:39;44.90;;;26.57;;
4726;SDS011;2377;51.734;8.950;2024-03-08T03:42:15;47.47;;;25.03;;
4726;SDS011;2377;51.734;8.950;2024-03-08T03:44:44;50.13;;;27.53;;
4726;SDS011;2377;51.734;8.950;2024-03-08T03:47:13;44.27;;;26.20;;
4726;SDS011;2377;51.734;8.950;2024-03-08T03:49:46;42.20;;;25.90;;
4726;SDS011;2377;51.734;8.950;2024-03-08T03:52:13;49.10;;;25.87;;
4726;SDS011;2377;51.734;8.950;2024-03-08T03:54:43;47.00;;;28.20;;
4726;SDS011;2377;51.734;8.950;2024-03-08T03:57:11;52.07;;;28.50;;
4726;SDS011;2377;51.734;8.950;2024-03-08T03:59:40;47.50;;;27.10;;
4726;SDS011;2377;51.734;8.950;2024-03-08T04:02:08;47.63;;;26.33;;
4726;SDS011;2377;51.734;8.950;2024-03-08T04:04:39;52.33;;;27.50;;
4726;SDS011;2377;51.734;8.950;2024-03-08T04:07:07;50.43;;;27.40;;
4726;SDS011;2377;51.734;8.950;2024-03-08T04:09:35;49.43;;;26.37;;
4726;SDS011;2377;51.734;8.950;2024-03-08T04:12:02;56.30;;;29.20;;
4726;SDS011;2377;51.734;8.950;2024-03-08T04:14:31;43.63;;;26.97;;
4726;SDS011;2377;51.734;8.950;2024-03-08T04:17:00;49.13;;;28.00;;
4726;SDS011;2377;51.734;8.950;2024-03-08T04:19:32;48.83;;;28.07;;
4726;SDS011;2377;51.734;8.950;2024-03-08T04:22:03;43.00;;;26.57;;
4726;SDS011;2377;51.734;8.950;2024-03-08T04:24:34;46.80;;;26.17;;
4726;SDS011;2377;51.734;8.950;2024-03-08T04:27:02;47.87;;;26.83;;
4726;SDS011;2377;51.734;8.950;2024-03-08T04:29:30;51.00;;;28.67;;
4726;SDS011;2377;51.734;8.950;2024-03-08T04:32:01;46.80;;;27.10;;
4726;SDS011;2377;51.734;8.950;2024-03-08T04:34:30;44.90;;;25.50;;
4726;SDS011;2377;51.734;8.950;2024-03-08T04:37:00;56.17;;;28.47;;
4726;SDS011;2377;51.734;8.950;2024-03-08T04:39:30;51.83;;;29.40;;
4726;SDS011;2377;51.734;8.950;2024-03-08T04:42:08;47.33;;;26.60;;
4726;SDS011;2377;51.734;8.950;2024-03-08T04:44:36;52.00;;;30.60;;
4726;SDS011;2377;51.734;8.950;2024-03-08T04:47:07;50.93;;;26.30;;
4726;SDS011;2377;51.734;8.950;2024-03-08T04:49:37;55.43;;;29.90;;
4726;SDS011;2377;51.734;8.950;2024-03-08T04:52:15;48.63;;;29.00;;
4726;SDS011;2377;51.734;8.950;2024-03-08T04:54:44;52.43;;;29.13;;
4726;SDS011;2377;51.734;8.950;2024-03-08T04:57:11;43.23;;;26.13;;
4726;SDS011;2377;51.734;8.950;2024-03-08T04:59:39;52.47;;;27.50;;
4726;SDS011;2377;51.734;8.950;2024-03-08T05:02:08;54.47;;;29.20;;
4726;SDS011;2377;51.734;8.950;2024-03-08T05:04:38;58.03;;;28.10;;
4726;SDS011;2377;51.734;8.950;2024-03-08T05:07:05;53.17;;;29.07;;
4726;SDS011;2377;51.734;8.950;2024-03-08T05:09:34;54.33;;;29.33;;
4726;SDS011;2377;51.734;8.950;2024-03-08T05:12:01;57.20;;;30.97;;
4726;SDS011;2377;51.734;8.950;2024-03-08T05:14:29;53.60;;;29.23;;
4726;SDS011;2377;51.734;8.950;2024-03-08T05:16:56;45.03;;;26.10;;
4726;SDS011;2377;51.734;8.950;2024-03-08T05:19:23;49.57;;;26.90;;
4726;SDS011;2377;51.734;8.950;2024-03-08T05:21:51;50.30;;;27.93;;
4726;SDS011;2377;51.734;8.950;2024-03-08T05:24:20;44.80;;;25.30;;
4726;SDS011;2377;51.734;8.950;2024-03-08T05:26:47;43.70;;;26.17;;
4726;SDS011;2377;51.734;8.950;2024-03-08T05:29:17;44.80;;;25.20;;
4726;SDS011;2377;51.734;8.950;2024-03-08T05:31:47;51.87;;;27.63;;
4726;SDS011;2377;51.734;8.950;2024-03-08T05:34:18;55.40;;;29.10;;
4726;SDS011;2377;51.734;8.950;2024-03-08T05:36:46;53.10;;;30.10;;
4726;SDS011;2377;51.734;8.950;2024-03-08T05:39:15;51.60;;;28.30;;
4726;SDS011;2377;51.734;8.950;2024-03-08T05:41:46;54.37;;;31.20;;
4726;SDS011;2377;51.734;8.950;2024-03-08T05:44:13;52.83;;;29.13;;
4726;SDS011;2377;51.734;8.950;2024-03-08T05:46:42;47.97;;;27.90;;
4726;SDS011;2377;51.734;8.950;2024-03-08T05:49:09;54.20;;;30.23;;
4726;SDS011;2377;51.734;8.950;2024-03-08T05:51:37;55.73;;;30.37;;
4726;SDS011;2377;51.734;8.950;2024-03-08T05:54:06;56.87;;;30.50;;
4726;SDS011;2377;51.734;8.950;2024-03-08T05:56:36;50.70;;;28.00;;
4726;SDS011;2377;51.734;8.950;2024-03-08T05:59:07;56.00;;;30.30;;
4726;SDS011;2377;51.734;8.950;2024-03-08T06:01:34;52.57;;;30.20;;
4726;SDS011;2377;51.734;8.950;2024-03-08T06:04:02;55.63;;;31.37;;
4726;SDS011;2377;51.734;8.950;2024-03-08T06:06:30;56.23;;;28.47;;
4726;SDS011;2377;51.734;8.950;2024-03-08T06:08:57;59.30;;;29.23;;
4726;SDS011;2377;51.734;8.950;2024-03-08T06:11:25;54.77;;;29.23;;
4726;SDS011;2377;51.734;8.950;2024-03-08T06:13:53;59.17;;;30.70;;
4726;SDS011;2377;51.734;8.950;2024-03-08T06:16:26;56.40;;;29.70;;
4726;SDS011;2377;51.734;8.950;2024-03-08T06:18:54;55.97;;;29.93;;
4726;SDS011;2377;51.734;8.950;2024-03-08T06:21:22;56.97;;;30.60;;
4726;SDS011;2377;51.734;8.950;2024-03-08T06:23:51;52.93;;;29.00;;
4726;SDS011;2377;51.734;8.950;2024-03-08T06:26:19;59.10;;;31.20;;
4726;SDS011;2377;51.734;8.950;2024-03-08T06:28:47;52.53;;;29.50;;
4726;SDS011;2377;51.734;8.950;2024-03-08T06:31:14;51.60;;;29.10;;
4726;SDS011;2377;51.734;8.950;2024-03-08T06:33:42;58.00;;;30.03;;
4726;SDS011;2377;51.734;8.950;2024-03-08T06:36:10;50.03;;;28.33;;
4726;SDS011;2377;51.734;8.950;2024-03-08T06:38:38;54.93;;;31.30;;
4726;SDS011;2377;51.734;8.950;2024-03-08T06:41:07;50.77;;;28.13;;
4726;SDS011;2377;51.734;8.950;2024-03-08T06:43:40;51.27;;;30.70;;
4726;SDS011;2377;51.734;8.950;2024-03-08T06:46:08;55.13;;;29.83;;
4726;SDS011;2377;51.734;8.950;2024-03-08T06:48:35;53.97;;;29.13;;
4726;SDS011;2377;51.734;8.950;2024-03-08T06:51:04;53.03;;;30.10;;
4726;SDS011;2377;51.734;8.950;2024-03-08T06:53:32;55.17;;;29.87;;
4726;SDS011;2377;51.734;8.950;2024-03-08T06:56:00;48.93;;;28.30;;
4726;SDS011;2377;51.734;8.950;2024-03-08T06:58:27;54.37;;;30.30;;
4726;SDS011;2377;51.734;8.950;2024-03-08T07:00:54;53.80;;;31.40;;
4726;SDS011;2377;51.734;8.950;2024-03-08T07:03:25;53.83;;;28.70;;
4726;SDS011;2377;51.734;8.950;2024-03-08T07:05:54;55.60;;;29.67;;
4726;SDS011;2377;51.734;8.950;2024-03-08T07:08:24;51.27;;;28.23;;
4726;SDS011;2377;51.734;8.950;2024-03-08T07:10:52;53.40;;;30.43;;
4726;SDS011;2377;51.734;8.950;2024-03-08T07:13:19;49.67;;;29.37;;
4726;SDS011;2377;51.734;8.950;2024-03-08T07:15:46;52.60;;;28.40;;
4726;SDS011;2377;51.734;8.950;2024-03-08T07:18:13;55.77;;;31.73;;
4726;SDS011;2377;51.734;8.950;2024-03-08T07:20:40;54.10;;;29.97;;
4726;SDS011;2377;51.734;8.950;2024-03-08T07:23:08;53.43;;;31.23;;
4726;SDS011;2377;51.734;8.950;2024-03-08T07:25:37;51.40;;;29.67;;
4726;SDS011;2377;51.734;8.950;2024-03-08T07:28:04;58.77;;;29.40;;
4726;SDS011;2377;51.734;8.950;2024-03-08T07:30:32;54.27;;;29.47;;
4726;SDS011;2377;51.734;8.950;2024-03-08T07:33:26;55.30;;;29.17;;
4726;SDS011;2377;51.734;8.950;2024-03-08T07:35:53;54.47;;;29.70;;
4726;SDS011;2377;51.734;8.950;2024-03-08T07:38:21;52.60;;;29.63;;
4726;SDS011;2377;51.734;8.950;2024-03-08T07:40:49;52.70;;;29.07;;
4726;SDS011;2377;51.734;8.950;2024-03-08T07:43:17;47.33;;;27.73;;
4726;SDS011;2377;51.734;8.950;2024-03-08T07:45:44;51.30;;;29.47;;
4726;SDS011;2377;51.734;8.950;2024-03-08T07:48:12;53.37;;;28.10;;
4726;SDS011;2377;51.734;8.950;2024-03-08T07:50:39;56.57;;;31.90;;
4726;SDS011;2377;51.734;8.950;2024-03-08T07:53:07;52.33;;;30.50;;
4726;SDS011;2377;51.734;8.950;2024-03-08T07:55:34;54.07;;;30.77;;
4726;SDS011;2377;51.734;8.950;2024-03-08T07:58:04;51.77;;;30.93;;
4726;SDS011;2377;51.734;8.950;2024-03-08T08:00:31;53.97;;;28.87;;
4726;SDS011;2377;51.734;8.950;2024-03-08T08:02:58;51.10;;;29.90;;
4726;SDS011;2377;51.734;8.950;2024-03-08T08:05:26;54.43;;;30.27;;
4726;SDS011;2377;51.734;8.950;2024-03-08T08:07:53;55.77;;;28.80;;
4726;SDS011;2377;51.734;8.950;2024-03-08T08:10:21;49.27;;;28.57;;
4726;SDS011;2377;51.734;8.950;2024-03-08T08:12:49;53.60;;;29.10;;
4726;SDS011;2377;51.734;8.950;2024-03-08T08:15:18;49.50;;;29.87;;
4726;SDS011;2377;51.734;8.950;2024-03-08T08:17:46;51.23;;;28.83;;
4726;SDS011;2377;51.734;8.950;2024-03-08T08:20:13;51.03;;;28.70;;
4726;SDS011;2377;51.734;8.950;2024-03-08T08:22:41;54.90;;;30.27;;
4726;SDS011;2377;51.734;8.950;2024-03-08T08:25:12;46.80;;;28.93;;
4726;SDS011;2377;51.734;8.950;2024-03-08T08:27:40;53.07;;;29.97;;
4726;SDS011;2377;51.734;8.950;2024-03-08T08:30:08;48.60;;;28.63;;
4726;SDS011;2377;51.734;8.950;2024-03-08T08:32:38;50.10;;;29.10;;
4726;SDS011;2377;51.734;8.950;2024-03-08T08:35:07;51.43;;;29.13;;
4726;SDS011;2377;51.734;8.950;2024-03-08T08:37:38;55.80;;;28.50;;
4726;SDS011;2377;51.734;8.950;2024-03-08T08:40:05;54.10;;;31.87;;
4726;SDS011;2377;51.734;8.950;2024-03-08T08:42:35;51.77;;;27.43;;
4726;SDS011;2377;51.734;8.950;2024-03-08T08:45:03;48.07;;;29.17;;
4726;SDS011;2377;51.734;8.950;2024-03-08T08:47:34;49.67;;;29.30;;
4726;SDS011;2377;51.734;8.950;2024-03-08T08:50:03;56.00;;;31.20;;
4726;SDS011;2377;51.734;8.950;2024-03-08T08:52:31;49.37;;;29.37;;
4726;SDS011;2377;51.734;8.950;2024-03-08T08:54:59;49.17;;;26.43;;
4726;SDS011;2377;51.734;8.950;2024-03-08T08:57:28;47.10;;;27.53;;
4726;SDS011;2377;51.734;8.950;2024-03-08T08:59:58;48.50;;;28.53;;
4726;SDS011;2377;51.734;8.950;2024-03-08T09:02:25;45.40;;;27.20;;
4726;SDS011;2377;51.734;8.950;2024-03-08T09:04:52;45.63;;;27.80;;
4726;SDS011;2377;51.734;8.950;2024-03-08T09:07:21;45.23;;;27.10;;
4726;SDS011;2377;51.734;8.950;2024-03-08T09:09:48;52.37;;;28.00;;
4726;SDS011;2377;51.734;8.950;2024-03-08T09:12:15;40.83;;;26.20;;
4726;SDS011;2377;51.734;8.950;2024-03-08T09:14:42;46.87;;;26.53;;
4726;SDS011;2377;51.734;8.950;2024-03-08T09:17:09;43.13;;;26.03;;
4726;SDS011;2377;51.734;8.950;2024-03-08T09:19:36;46.83;;;27.07;;
4726;SDS011;2377;51.734;8.950;2024-03-08T09:22:04;44.23;;;25.70;;
4726;SDS011;2377;51.734;8.950;2024-03-08T09:24:33;44.37;;;27.50;;
4726;SDS011;2377;51.734;8.950;2024-03-08T09:27:00;47.00;;;27.53;;
4726;SDS011;2377;51.734;8.950;2024-03-08T09:29:28;45.43;;;27.20;;
4726;SDS011;2377;51.734;8.950;2024-03-08T09:31:55;43.53;;;24.93;;
4726;SDS011;2377;51.734;8.950;2024-03-08T09:34:22;53.07;;;28.40;;
4726;SDS011;2377;51.734;8.950;2024-03-08T09:36:49;45.53;;;26.67;;
4726;SDS011;2377;51.734;8.950;2024-03-08T09:39:17;40.63;;;25.77;;
4726;SDS011;2377;51.734;8.950;2024-03-08T09:41:47;40.87;;;25.87;;
4726;SDS011;2377;51.734;8.950;2024-03-08T09:44:14;45.70;;;27.30;;
4726;SDS011;2377;51.734;8.950;2024-03-08T09:46:41;42.93;;;27.00;;
4726;SDS011;2377;51.734;8.950;2024-03-08T09:49:08;43.70;;;27.70;;
4726;SDS011;2377;51.734;8.950;2024-03-08T09:51:36;46.20;;;25.83;;
4726;SDS011;2377;51.734;8.950;2024-03-08T09:54:06;45.03;;;27.90;;
4726;SDS011;2377;51.734;8.950;2024-03-08T09:56:34;46.90;;;27.53;;
4726;SDS011;2377;51.734;8.950;2024-03-08T09:59:03;45.20;;;27.07;;
4726;SDS011;2377;51.734;8.950;2024-03-08T10:01:57;40.13;;;26.00;;
4726;SDS011;2377;51.734;8.950;2024-03-08T10:04:25;43.80;;;26.70;;
4726;SDS011;2377;51.734;8.950;2024-03-08T10:06:53;42.97;;;26.80;;
4726;SDS011;2377;51.734;8.950;2024-03-08T10:09:21;39.40;;;25.50;;
4726;SDS011;2377;51.734;8.950;2024-03-08T10:11:50;45.03;;;27.80;;
4726;SDS011;2377;51.734;8.950;2024-03-08T10:14:21;40.03;;;26.20;;
4726;SDS011;2377;51.734;8.950;2024-03-08T10:16:49;48.97;;;27.63;;
4726;SDS011;2377;51.734;8.950;2024-03-08T10:19:24;43.00;;;25.60;;
4726;SDS011;2377;51.734;8.950;2024-03-08T10:21:52;40.90;;;25.37;;
4726;SDS011;2377;51.734;8.950;2024-03-08T10:24:22;44.87;;;26.20;;
4726;SDS011;2377;51.734;8.950;2024-03-08T10:26:51;50.40;;;28.20;;
4726;SDS011;2377;51.734;8.950;2024-03-08T10:29:19;39.93;;;26.07;;
4726;SDS011;2377;51.734;8.950;2024-03-08T10:31:48;44.27;;;26.47;;
4726;SDS011;2377;51.734;8.950;2024-03-08T10:34:16;38.73;;;24.43;;
4726;SDS011;2377;51.734;8.950;2024-03-08T10:36:44;38.10;;;26.20;;
4726;SDS011;2377;51.734;8.950;2024-03-08T10:39:21;44.23;;;26.67;;
4726;SDS011;2377;51.734;8.950;2024-03-08T10:41:52;36.97;;;23.03;;
4726;SDS011;2377;51.734;8.950;2024-03-08T10:47:25;38.40;;;24.50;;
4726;SDS011;2377;51.734;8.950;2024-03-08T10:49:59;40.97;;;24.73;;
4726;SDS011;2377;51.734;8.950;2024-03-08T10:52:38;42.87;;;25.80;;
4726;SDS011;2377;51.734;8.950;2024-03-08T10:55:06;36.50;;;24.47;;
4726;SDS011;2377;51.734;8.950;2024-03-08T10:57:38;40.70;;;25.00;;
4726;SDS011;2377;51.734;8.950;2024-03-08T11:00:08;39.43;;;24.97;;
4726;SDS011;2377;51.734;8.950;2024-03-08T11:02:37;44.30;;;25.47;;
4726;SDS011;2377;51.734;8.950;2024-03-08T11:05:05;37.47;;;23.93;;
4726;SDS011;2377;51.734;8.950;2024-03-08T11:07:42;34.83;;;22.93;;
4726;SDS011;2377;51.734;8.950;2024-03-08T11:10:18;36.27;;;22.27;;
4726;SDS011;2377;51.734;8.950;2024-03-08T11:12:46;38.47;;;24.03;;
4726;SDS011;2377;51.734;8.950;2024-03-08T11:15:15;36.33;;;21.90;;
4726;SDS011;2377;51.734;8.950;2024-03-08T11:17:47;39.60;;;23.77;;
4726;SDS011;2377;51.734;8.950;2024-03-08T11:20:16;36.73;;;23.30;;
4726;SDS011;2377;51.734;8.950;2024-03-08T11:22:49;34.20;;;22.10;;
4726;SDS011;2377;51.734;8.950;2024-03-08T11:25:34;41.80;;;23.10;;
4726;SDS011;2377;51.734;8.950;2024-03-08T11:28:06;35.70;;;21.17;;
4726;SDS011;2377;51.734;8.950;2024-03-08T11:30:42;32.93;;;21.00;;
4726;SDS011;2377;51.734;8.950;2024-03-08T11:33:12;34.73;;;22.73;;
4726;SDS011;2377;51.734;8.950;2024-03-08T11:35:41;36.97;;;22.53;;
4726;SDS011;2377;51.734;8.950;2024-03-08T11:38:11;35.33;;;21.47;;
4726;SDS011;2377;51.734;8.950;2024-03-08T11:40:39;29.27;;;20.20;;
4726;SDS011;2377;51.734;8.950;2024-03-08T11:43:08;33.97;;;21.07;;
4726;SDS011;2377;51.734;8.950;2024-03-08T11:45:35;34.40;;;21.57;;
4726;SDS011;2377;51.734;8.950;2024-03-08T11:48:04;37.00;;;23.13;;
4726;SDS011;2377;51.734;8.950;2024-03-08T11:50:32;35.37;;;21.47;;
4726;SDS011;2377;51.734;8.950;2024-03-08T11:53:02;36.90;;;23.40;;
4726;SDS011;2377;51.734;8.950;2024-03-08T11:55:31;36.67;;;22.20;;
4726;SDS011;2377;51.734;8.950;2024-03-08T11:58:04;37.60;;;24.67;;
4726;SDS011;2377;51.734;8.950;2024-03-08T12:00:33;38.97;;;22.33;;
4726;SDS011;2377;51.734;8.950;2024-03-08T12:03:05;35.90;;;22.00;;
4726;SDS011;2377;51.734;8.950;2024-03-08T12:05:34;37.50;;;22.87;;
4726;SDS011;2377;51.734;8.950;2024-03-08T12:08:03;35.70;;;21.70;;
4726;SDS011;2377;51.734;8.950;2024-03-08T12:10:32;34.23;;;22.83;;
4726;SDS011;2377;51.734;8.950;2024-03-08T12:13:00;33.00;;;21.70;;
4726;SDS011;2377;51.734;8.950;2024-03-08T12:15:28;33.00;;;21.63;;
4726;SDS011;2377;51.734;8.950;2024-03-08T12:17:58;36.60;;;22.80;;
4726;SDS011;2377;51.734;8.950;2024-03-08T12:20:28;35.57;;;22.33;;
4726;SDS011;2377;51.734;8.950;2024-03-08T12:22:56;36.27;;;22.20;;
4726;SDS011;2377;51.734;8.950;2024-03-08T12:25:26;34.27;;;21.27;;
4726;SDS011;2377;51.734;8.950;2024-03-08T12:27:56;29.70;;;19.30;;
4726;SDS011;2377;51.734;8.950;2024-03-08T12:30:43;34.90;;;22.07;;
4726;SDS011;2377;51.734;8.950;2024-03-08T12:33:14;32.60;;;20.67;;
4726;SDS011;2377;51.734;8.950;2024-03-08T12:35:49;32.50;;;20.60;;
4726;SDS011;2377;51.734;8.950;2024-03-08T12:38:20;32.90;;;20.10;;
4726;SDS011;2377;51.734;8.950;2024-03-08T12:40:50;39.30;;;21.73;;
4726;SDS011;2377;51.734;8.950;2024-03-08T12:43:22;32.80;;;21.40;;
4726;SDS011;2377;51.734;8.950;2024-03-08T12:45:49;36.53;;;22.00;;
4726;SDS011;2377;51.734;8.950;2024-03-08T12:48:16;33.63;;;21.63;;
4726;SDS011;2377;51.734;8.950;2024-03-08T12:50:47;34.10;;;22.17;;
4726;SDS011;2377;51.734;8.950;2024-03-08T12:53:16;38.00;;;22.33;;
4726;SDS011;2377;51.734;8.950;2024-03-08T12:55:43;37.77;;;23.50;;
4726;SDS011;2377;51.734;8.950;2024-03-08T12:58:10;37.00;;;23.83;;
4726;SDS011;2377;51.734;8.950;2024-03-08T13:00:41;33.10;;;20.67;;
4726;SDS011;2377;51.734;8.950;2024-03-08T13:03:09;40.13;;;24.20;;
4726;SDS011;2377;51.734;8.950;2024-03-08T13:05:39;32.17;;;22.27;;
4726;SDS011;2377;51.734;8.950;2024-03-08T13:08:14;32.20;;;21.80;;
4726;SDS011;2377;51.734;8.950;2024-03-08T13:10:52;36.90;;;23.00;;
4726;SDS011;2377;51.734;8.950;2024-03-08T13:13:21;37.33;;;23.90;;
4726;SDS011;2377;51.734;8.950;2024-03-08T13:15:49;39.30;;;23.70;;
4726;SDS011;2377;51.734;8.950;2024-03-08T13:18:25;40.37;;;23.60;;
4726;SDS011;2377;51.734;8.950;2024-03-08T13:23:50;39.07;;;23.20;;
4726;SDS011;2377;51.734;8.950;2024-03-08T13:26:18;39.07;;;23.50;;
4726;SDS011;2377;51.734;8.950;2024-03-08T13:28:45;35.27;;;22.57;;
4726;SDS011;2377;51.734;8.950;2024-03-08T13:31:18;34.07;;;22.20;;
4726;SDS011;2377;51.734;8.950;2024-03-08T13:33:45;38.10;;;23.40;;
4726;SDS011;2377;51.734;8.950;2024-03-08T13:36:12;35.70;;;23.87;;
4726;SDS011;2377;51.734;8.950;2024-03-08T13:38:43;36.50;;;22.67;;
4726;SDS011;2377;51.734;8.950;2024-03-08T13:41:12;36.00;;;23.23;;
4726;SDS011;2377;51.734;8.950;2024-03-08T13:43:41;33.70;;;22.90;;
4726;SDS011;2377;51.734;8.950;2024-03-08T13:46:09;34.47;;;21.50;;
4726;SDS011;2377;51.734;8.950;2024-03-08T13:48:36;34.83;;;22.50;;
4726;SDS011;2377;51.734;8.950;2024-03-08T13:51:03;40.07;;;24.63;;
4726;SDS011;2377;51.734;8.950;2024-03-08T13:53:32;39.90;;;25.20;;
4726;SDS011;2377;51.734;8.950;2024-03-08T13:56:01;36.03;;;21.70;;
4726;SDS011;2377;51.734;8.950;2024-03-08T13:58:30;33.47;;;21.63;;
4726;SDS011;2377;51.734;8.950;2024-03-08T14:00:57;36.83;;;21.47;;
4726;SDS011;2377;51.734;8.950;2024-03-08T14:03:25;33.57;;;20.10;;
4726;SDS011;2377;51.734;8.950;2024-03-08T14:05:52;34.73;;;21.67;;
4726;SDS011;2377;51.734;8.950;2024-03-08T14:08:20;30.70;;;20.00;;
4726;SDS011;2377;51.734;8.950;2024-03-08T14:10:47;34.03;;;20.40;;
4726;SDS011;2377;51.734;8.950;2024-03-08T14:13:17;28.03;;;19.00;;
4726;SDS011;2377;51.734;8.950;2024-03-08T14:15:44;31.10;;;19.90;;
4726;SDS011;2377;51.734;8.950;2024-03-08T14:18:11;34.40;;;20.57;;
4726;SDS011;2377;51.734;8.950;2024-03-08T14:20:39;32.73;;;20.77;;
4726;SDS011;2377;51.734;8.950;2024-03-08T14:23:07;32.20;;;21.00;;
4726;SDS011;2377;51.734;8.950;2024-03-08T14:25:34;34.40;;;20.27;;
4726;SDS011;2377;51.734;8.950;2024-03-08T14:28:01;35.10;;;22.30;;
4726;SDS011;2377;51.734;8.950;2024-03-08T14:30:33;38.63;;;22.10;;
4726;SDS011;2377;51.734;8.950;2024-03-08T14:33:03;37.20;;;21.37;;
4726;SDS011;2377;51.734;8.950;2024-03-08T14:35:34;33.50;;;20.97;;
4726;SDS011;2377;51.734;8.950;2024-03-08T14:38:02;34.73;;;21.80;;
4726;SDS011;2377;51.734;8.950;2024-03-08T14:40:29;33.93;;;20.50;;
4726;SDS011;2377;51.734;8.950;2024-03-08T14:42:57;34.13;;;21.00;;
4726;SDS011;2377;51.734;8.950;2024-03-08T14:45:24;33.60;;;22.37;;
4726;SDS011;2377;51.734;8.950;2024-03-08T14:47:53;38.20;;;22.03;;
4726;SDS011;2377;51.734;8.950;2024-03-08T14:50:20;33.40;;;20.60;;
4726;SDS011;2377;51.734;8.950;2024-03-08T14:52:49;37.50;;;23.07;;
4726;SDS011;2377;51.734;8.950;2024-03-08T14:55:17;41.53;;;22.30;;
4726;SDS011;2377;51.734;8.950;2024-03-08T14:57:44;34.93;;;22.43;;
4726;SDS011;2377;51.734;8.950;2024-03-08T15:00:15;34.60;;;21.73;;
4726;SDS011;2377;51.734;8.950;2024-03-08T15:02:53;35.10;;;20.67;;
4726;SDS011;2377;51.734;8.950;2024-03-08T15:05:21;39.67;;;22.73;;